sensor_id;sensor_type;location;lat;lon;timestamp;temperature;humidity
66928;DHT22;59882;45.624;11.698;2023-01-01T00:01:35;9.40;85.30
66928;DHT22;59882;45.624;11.698;2023-01-01T00:04:06;9.40;85.40
66928;DHT22;59882;45.624;11.698;2023-01-01T00:06:34;9.40;85.40
66928;DHT22;59882;45.624;11.698;2023-01-01T00:09:00;9.40;85.50
66928;DHT22;59882;45.624;11.698;2023-01-01T00:11:44;9.50;85.40
66928;DHT22;59882;45.624;11.698;2023-01-01T00:14:10;9.50;85.40
66928;DHT22;59882;45.624;11.698;2023-01-01T00:16:35;9.50;85.40
66928;DHT22;59882;45.624;11.698;2023-01-01T00:19:01;9.50;85.50
66928;DHT22;59882;45.624;11.698;2023-01-01T00:21:27;9.50;85.60
66928;DHT22;59882;45.624;11.698;2023-01-01T00:23:53;9.50;85.60
66928;DHT22;59882;45.624;11.698;2023-01-01T00:26:18;9.50;85.70
66928;DHT22;59882;45.624;11.698;2023-01-01T00:28:44;9.50;85.60
66928;DHT22;59882;45.624;11.698;2023-01-01T00:31:16;9.50;85.60
66928;DHT22;59882;45.624;11.698;2023-01-01T00:33:42;9.50;85.50
66928;DHT22;59882;45.624;11.698;2023-01-01T00:36:15;9.50;85.40
66928;DHT22;59882;45.624;11.698;2023-01-01T00:38:43;9.50;85.40
66928;DHT22;59882;45.624;11.698;2023-01-01T00:41:10;9.60;85.40
66928;DHT22;59882;45.624;11.698;2023-01-01T00:43:36;9.50;85.40
66928;DHT22;59882;45.624;11.698;2023-01-01T00:46:03;9.50;85.40
66928;DHT22;59882;45.624;11.698;2023-01-01T00:48:29;9.50;85.40
66928;DHT22;59882;45.624;11.698;2023-01-01T00:50:55;9.50;85.50
66928;DHT22;59882;45.624;11.698;2023-01-01T00:53:21;9.50;85.60
66928;DHT22;59882;45.624;11.698;2023-01-01T00:55:48;9.50;85.70
66928;DHT22;59882;45.624;11.698;2023-01-01T00:58:16;9.50;85.70
66928;DHT22;59882;45.624;11.698;2023-01-01T01:00:42;9.60;85.60
66928;DHT22;59882;45.624;11.698;2023-01-01T01:03:09;9.60;85.70
66928;DHT22;59882;45.624;11.698;2023-01-01T01:05:37;9.60;85.80
66928;DHT22;59882;45.624;11.698;2023-01-01T01:08:03;9.60;85.90
66928;DHT22;59882;45.624;11.698;2023-01-01T01:10:29;9.60;86.00
66928;DHT22;59882;45.624;11.698;2023-01-01T01:12:54;9.50;86.00
66928;DHT22;59882;45.624;11.698;2023-01-01T01:15:21;9.60;85.90
66928;DHT22;59882;45.624;11.698;2023-01-01T01:17:46;9.60;85.70
66928;DHT22;59882;45.624;11.698;2023-01-01T01:20:12;9.60;85.70
66928;DHT22;59882;45.624;11.698;2023-01-01T01:22:38;9.60;85.80
66928;DHT22;59882;45.624;11.698;2023-01-01T01:25:05;9.60;85.80
66928;DHT22;59882;45.624;11.698;2023-01-01T01:27:31;9.50;85.80
66928;DHT22;59882;45.624;11.698;2023-01-01T01:29:57;9.50;85.80
66928;DHT22;59882;45.624;11.698;2023-01-01T01:32:23;9.50;85.90
66928;DHT22;59882;45.624;11.698;2023-01-01T01:34:48;9.50;85.90
66928;DHT22;59882;45.624;11.698;2023-01-01T01:37:14;9.50;85.90
66928;DHT22;59882;45.624;11.698;2023-01-01T01:39:40;9.50;85.90
66928;DHT22;59882;45.624;11.698;2023-01-01T01:42:05;9.50;85.90
66928;DHT22;59882;45.624;11.698;2023-01-01T01:44:57;9.50;86.00
66928;DHT22;59882;45.624;11.698;2023-01-01T01:52:31;9.50;86.10
66928;DHT22;59882;45.624;11.698;2023-01-01T01:54:58;9.50;86.20
66928;DHT22;59882;45.624;11.698;2023-01-01T01:57:26;9.50;86.20
66928;DHT22;59882;45.624;11.698;2023-01-01T01:59:53;9.50;86.20
66928;DHT22;59882;45.624;11.698;2023-01-01T02:02:31;9.50;86.20
66928;DHT22;59882;45.624;11.698;2023-01-01T02:04:58;9.50;86.20
66928;DHT22;59882;45.624;11.698;2023-01-01T02:07:25;9.50;86.20
66928;DHT22;59882;45.624;11.698;2023-01-01T02:09:52;9.60;86.20
66928;DHT22;59882;45.624;11.698;2023-01-01T02:12:18;9.60;86.20
66928;DHT22;59882;45.624;11.698;2023-01-01T02:14:44;9.50;86.20
66928;DHT22;59882;45.624;11.698;2023-01-01T02:17:18;9.60;86.30
66928;DHT22;59882;45.624;11.698;2023-01-01T02:22:46;9.60;86.20
66928;DHT22;59882;45.624;11.698;2023-01-01T02:28:47;9.60;86.20
66928;DHT22;59882;45.624;11.698;2023-01-01T02:31:15;9.60;86.20
66928;DHT22;59882;45.624;11.698;2023-01-01T02:33:43;9.60;86.30
66928;DHT22;59882;45.624;11.698;2023-01-01T02:36:10;9.60;86.20
66928;DHT22;59882;45.624;11.698;2023-01-01T02:38:40;9.60;86.30
66928;DHT22;59882;45.624;11.698;2023-01-01T02:41:24;9.60;86.30
66928;DHT22;59882;45.624;11.698;2023-01-01T02:43:50;9.60;86.40
66928;DHT22;59882;45.624;11.698;2023-01-01T02:46:16;9.60;86.40
66928;DHT22;59882;45.624;11.698;2023-01-01T02:48:50;9.60;86.50
66928;DHT22;59882;45.624;11.698;2023-01-01T02:51:41;9.60;86.40
66928;DHT22;59882;45.624;11.698;2023-01-01T03:10:14;9.60;86.50
66928;DHT22;59882;45.624;11.698;2023-01-01T03:13:03;9.60;86.50
66928;DHT22;59882;45.624;11.698;2023-01-01T03:20:47;9.60;86.60
66928;DHT22;59882;45.624;11.698;2023-01-01T03:23:19;9.60;86.60
66928;DHT22;59882;45.624;11.698;2023-01-01T03:25:49;9.70;86.70
66928;DHT22;59882;45.624;11.698;2023-01-01T03:28:21;9.60;86.70
66928;DHT22;59882;45.624;11.698;2023-01-01T03:30:49;9.60;86.60
66928;DHT22;59882;45.624;11.698;2023-01-01T03:33:25;9.60;86.60
66928;DHT22;59882;45.624;11.698;2023-01-01T03:36:02;9.60;86.70
66928;DHT22;59882;45.624;11.698;2023-01-01T03:38:34;9.60;86.70
66928;DHT22;59882;45.624;11.698;2023-01-01T03:41:13;9.60;86.80
66928;DHT22;59882;45.624;11.698;2023-01-01T03:43:48;9.60;86.80
66928;DHT22;59882;45.624;11.698;2023-01-01T03:46:17;9.60;86.80
66928;DHT22;59882;45.624;11.698;2023-01-01T03:48:44;9.60;86.80
66928;DHT22;59882;45.624;11.698;2023-01-01T03:57:26;9.70;86.70
66928;DHT22;59882;45.624;11.698;2023-01-01T04:02:39;9.60;86.80
66928;DHT22;59882;45.624;11.698;2023-01-01T04:05:07;9.70;86.80
66928;DHT22;59882;45.624;11.698;2023-01-01T04:07:35;9.60;86.80
66928;DHT22;59882;45.624;11.698;2023-01-01T04:10:05;9.70;86.80
66928;DHT22;59882;45.624;11.698;2023-01-01T04:15:10;9.70;86.80
66928;DHT22;59882;45.624;11.698;2023-01-01T04:17:35;9.60;86.90
66928;DHT22;59882;45.624;11.698;2023-01-01T04:20:01;9.60;86.80
66928;DHT22;59882;45.624;11.698;2023-01-01T04:22:27;9.60;86.80
66928;DHT22;59882;45.624;11.698;2023-01-01T04:24:52;9.60;86.80
66928;DHT22;59882;45.624;11.698;2023-01-01T04:27:18;9.70;86.70
66928;DHT22;59882;45.624;11.698;2023-01-01T04:29:43;9.70;86.70
66928;DHT22;59882;45.624;11.698;2023-01-01T04:32:09;9.60;86.70
66928;DHT22;59882;45.624;11.698;2023-01-01T04:34:35;9.60;86.70
66928;DHT22;59882;45.624;11.698;2023-01-01T04:37:00;9.70;86.70
66928;DHT22;59882;45.624;11.698;2023-01-01T04:39:26;9.70;86.70
66928;DHT22;59882;45.624;11.698;2023-01-01T04:41:51;9.70;86.60
66928;DHT22;59882;45.624;11.698;2023-01-01T04:44:17;9.70;86.70
66928;DHT22;59882;45.624;11.698;2023-01-01T04:46:43;9.70;86.70
66928;DHT22;59882;45.624;11.698;2023-01-01T04:49:09;9.70;86.70
66928;DHT22;59882;45.624;11.698;2023-01-01T04:51:34;9.70;86.70
66928;DHT22;59882;45.624;11.698;2023-01-01T04:54:00;9.70;86.70
66928;DHT22;59882;45.624;11.698;2023-01-01T04:56:27;9.70;86.70
66928;DHT22;59882;45.624;11.698;2023-01-01T04:58:52;9.70;86.70
66928;DHT22;59882;45.624;11.698;2023-01-01T05:01:24;9.70;86.70
66928;DHT22;59882;45.624;11.698;2023-01-01T05:03:50;9.60;86.70
66928;DHT22;59882;45.624;11.698;2023-01-01T05:06:16;9.60;86.70
66928;DHT22;59882;45.624;11.698;2023-01-01T05:08:44;9.60;86.80
66928;DHT22;59882;45.624;11.698;2023-01-01T05:11:18;9.60;86.80
66928;DHT22;59882;45.624;11.698;2023-01-01T05:13:46;9.60;86.80
66928;DHT22;59882;45.624;11.698;2023-01-01T05:16:15;9.60;86.80
66928;DHT22;59882;45.624;11.698;2023-01-01T05:18:41;9.60;86.80
66928;DHT22;59882;45.624;11.698;2023-01-01T05:21:11;9.60;86.70
66928;DHT22;59882;45.624;11.698;2023-01-01T05:23:38;9.70;86.80
66928;DHT22;59882;45.624;11.698;2023-01-01T05:26:14;9.60;86.70
66928;DHT22;59882;45.624;11.698;2023-01-01T05:28:40;9.60;86.70
66928;DHT22;59882;45.624;11.698;2023-01-01T05:31:12;9.60;86.80
66928;DHT22;59882;45.624;11.698;2023-01-01T05:33:38;9.70;86.80
66928;DHT22;59882;45.624;11.698;2023-01-01T05:36:05;9.60;86.80
66928;DHT22;59882;45.624;11.698;2023-01-01T05:38:31;9.70;86.80
66928;DHT22;59882;45.624;11.698;2023-01-01T05:40:57;9.70;86.70
66928;DHT22;59882;45.624;11.698;2023-01-01T05:43:23;9.70;86.70
66928;DHT22;59882;45.624;11.698;2023-01-01T05:45:48;9.70;86.70
66928;DHT22;59882;45.624;11.698;2023-01-01T05:48:14;9.70;86.70
66928;DHT22;59882;45.624;11.698;2023-01-01T05:50:40;9.70;86.70
66928;DHT22;59882;45.624;11.698;2023-01-01T05:53:05;9.70;86.70
66928;DHT22;59882;45.624;11.698;2023-01-01T05:55:31;9.70;86.70
66928;DHT22;59882;45.624;11.698;2023-01-01T05:57:56;9.70;86.70
66928;DHT22;59882;45.624;11.698;2023-01-01T06:00:22;9.70;86.70
66928;DHT22;59882;45.624;11.698;2023-01-01T06:02:48;9.80;86.70
66928;DHT22;59882;45.624;11.698;2023-01-01T06:05:19;9.70;86.70
66928;DHT22;59882;45.624;11.698;2023-01-01T06:07:44;9.70;86.60
66928;DHT22;59882;45.624;11.698;2023-01-01T06:10:10;9.70;86.70
66928;DHT22;59882;45.624;11.698;2023-01-01T06:12:35;9.70;86.70
66928;DHT22;59882;45.624;11.698;2023-01-01T06:15:01;9.70;86.60
66928;DHT22;59882;45.624;11.698;2023-01-01T06:17:27;9.80;86.70
66928;DHT22;59882;45.624;11.698;2023-01-01T06:19:52;9.70;86.70
66928;DHT22;59882;45.624;11.698;2023-01-01T06:22:18;9.70;86.70
66928;DHT22;59882;45.624;11.698;2023-01-01T06:24:43;9.70;86.80
66928;DHT22;59882;45.624;11.698;2023-01-01T06:27:09;9.70;86.80
66928;DHT22;59882;45.624;11.698;2023-01-01T06:29:34;9.70;86.80
66928;DHT22;59882;45.624;11.698;2023-01-01T06:32:00;9.70;86.70
66928;DHT22;59882;45.624;11.698;2023-01-01T06:34:26;9.70;86.70
66928;DHT22;59882;45.624;11.698;2023-01-01T06:36:51;9.70;86.80
66928;DHT22;59882;45.624;11.698;2023-01-01T06:39:17;9.80;86.80
66928;DHT22;59882;45.624;11.698;2023-01-01T06:41:42;9.70;86.80
66928;DHT22;59882;45.624;11.698;2023-01-01T06:44:08;9.70;86.80
66928;DHT22;59882;45.624;11.698;2023-01-01T06:46:34;9.70;86.80
66928;DHT22;59882;45.624;11.698;2023-01-01T06:49:03;9.80;86.80
66928;DHT22;59882;45.624;11.698;2023-01-01T06:51:31;9.80;86.80
66928;DHT22;59882;45.624;11.698;2023-01-01T06:53:59;9.80;86.80
66928;DHT22;59882;45.624;11.698;2023-01-01T06:56:25;9.80;86.80
66928;DHT22;59882;45.624;11.698;2023-01-01T06:58:51;9.80;86.80
66928;DHT22;59882;45.624;11.698;2023-01-01T07:01:18;9.80;86.80
66928;DHT22;59882;45.624;11.698;2023-01-01T07:03:50;9.80;86.80
66928;DHT22;59882;45.624;11.698;2023-01-01T07:06:15;9.80;86.80
66928;DHT22;59882;45.624;11.698;2023-01-01T07:08:41;9.80;86.90
66928;DHT22;59882;45.624;11.698;2023-01-01T07:11:07;9.80;86.80
66928;DHT22;59882;45.624;11.698;2023-01-01T07:13:32;9.80;86.80
66928;DHT22;59882;45.624;11.698;2023-01-01T07:15:58;9.80;86.90
66928;DHT22;59882;45.624;11.698;2023-01-01T07:18:24;9.80;86.80
66928;DHT22;59882;45.624;11.698;2023-01-01T07:20:55;9.80;86.80
66928;DHT22;59882;45.624;11.698;2023-01-01T07:23:22;9.80;86.80
66928;DHT22;59882;45.624;11.698;2023-01-01T07:25:48;9.80;86.70
66928;DHT22;59882;45.624;11.698;2023-01-01T07:28:14;9.80;86.60
66928;DHT22;59882;45.624;11.698;2023-01-01T07:30:40;9.80;86.60
66928;DHT22;59882;45.624;11.698;2023-01-01T07:33:07;9.80;86.60
66928;DHT22;59882;45.624;11.698;2023-01-01T07:35:34;9.80;86.60
66928;DHT22;59882;45.624;11.698;2023-01-01T07:38:00;9.80;86.50
66928;DHT22;59882;45.624;11.698;2023-01-01T07:40:25;9.80;86.60
66928;DHT22;59882;45.624;11.698;2023-01-01T07:42:51;9.80;86.60
66928;DHT22;59882;45.624;11.698;2023-01-01T07:45:17;9.80;86.60
66928;DHT22;59882;45.624;11.698;2023-01-01T07:47:42;9.80;86.60
66928;DHT22;59882;45.624;11.698;2023-01-01T07:50:16;9.80;86.60
66928;DHT22;59882;45.624;11.698;2023-01-01T07:52:42;9.80;86.50
66928;DHT22;59882;45.624;11.698;2023-01-01T07:55:11;9.90;86.50
66928;DHT22;59882;45.624;11.698;2023-01-01T07:57:37;9.90;86.50
66928;DHT22;59882;45.624;11.698;2023-01-01T08:00:03;9.90;86.60
66928;DHT22;59882;45.624;11.698;2023-01-01T08:02:29;9.90;86.60
66928;DHT22;59882;45.624;11.698;2023-01-01T08:04:55;9.90;86.60
66928;DHT22;59882;45.624;11.698;2023-01-01T08:07:20;10.00;86.60
66928;DHT22;59882;45.624;11.698;2023-01-01T08:09:46;10.00;86.50
66928;DHT22;59882;45.624;11.698;2023-01-01T08:12:11;10.00;86.60
66928;DHT22;59882;45.624;11.698;2023-01-01T08:14:37;10.00;86.50
66928;DHT22;59882;45.624;11.698;2023-01-01T08:17:02;10.10;86.50
66928;DHT22;59882;45.624;11.698;2023-01-01T08:19:28;10.10;86.50
66928;DHT22;59882;45.624;11.698;2023-01-01T08:21:54;10.10;86.40
66928;DHT22;59882;45.624;11.698;2023-01-01T08:24:19;10.10;86.30
66928;DHT22;59882;45.624;11.698;2023-01-01T08:26:48;10.10;86.30
66928;DHT22;59882;45.624;11.698;2023-01-01T08:29:14;10.10;86.20
66928;DHT22;59882;45.624;11.698;2023-01-01T08:31:40;10.20;86.20
66928;DHT22;59882;45.624;11.698;2023-01-01T08:34:06;10.10;86.10
66928;DHT22;59882;45.624;11.698;2023-01-01T08:36:31;10.20;86.10
66928;DHT22;59882;45.624;11.698;2023-01-01T08:38:57;10.20;86.10
66928;DHT22;59882;45.624;11.698;2023-01-01T08:41:23;10.30;86.00
66928;DHT22;59882;45.624;11.698;2023-01-01T08:43:49;10.20;86.00
66928;DHT22;59882;45.624;11.698;2023-01-01T08:46:14;10.30;86.00
66928;DHT22;59882;45.624;11.698;2023-01-01T08:48:40;10.30;86.10
66928;DHT22;59882;45.624;11.698;2023-01-01T08:51:06;10.30;86.00
66928;DHT22;59882;45.624;11.698;2023-01-01T08:53:32;10.30;86.00
66928;DHT22;59882;45.624;11.698;2023-01-01T08:56:06;10.40;86.00
66928;DHT22;59882;45.624;11.698;2023-01-01T08:58:33;10.40;86.10
66928;DHT22;59882;45.624;11.698;2023-01-01T09:01:00;10.40;86.00
66928;DHT22;59882;45.624;11.698;2023-01-01T09:03:26;10.40;85.90
66928;DHT22;59882;45.624;11.698;2023-01-01T09:05:52;10.40;85.80
66928;DHT22;59882;45.624;11.698;2023-01-01T09:08:18;10.50;85.80
66928;DHT22;59882;45.624;11.698;2023-01-01T09:10:43;10.50;85.70
66928;DHT22;59882;45.624;11.698;2023-01-01T09:13:10;10.50;85.80
66928;DHT22;59882;45.624;11.698;2023-01-01T09:15:36;10.60;85.80
66928;DHT22;59882;45.624;11.698;2023-01-01T09:18:02;10.60;85.80
66928;DHT22;59882;45.624;11.698;2023-01-01T09:20:28;10.60;85.70
66928;DHT22;59882;45.624;11.698;2023-01-01T09:22:53;10.60;85.60
66928;DHT22;59882;45.624;11.698;2023-01-01T09:25:19;10.60;85.50
66928;DHT22;59882;45.624;11.698;2023-01-01T09:27:45;10.70;85.50
66928;DHT22;59882;45.624;11.698;2023-01-01T09:30:11;10.70;85.40
66928;DHT22;59882;45.624;11.698;2023-01-01T09:32:36;10.70;85.30
66928;DHT22;59882;45.624;11.698;2023-01-01T09:35:03;10.70;85.10
66928;DHT22;59882;45.624;11.698;2023-01-01T09:37:28;10.70;85.20
66928;DHT22;59882;45.624;11.698;2023-01-01T09:39:55;10.80;85.10
66928;DHT22;59882;45.624;11.698;2023-01-01T09:42:42;10.80;85.00
66928;DHT22;59882;45.624;11.698;2023-01-01T09:45:27;10.80;84.90
66928;DHT22;59882;45.624;11.698;2023-01-01T09:48:05;10.80;84.70
66928;DHT22;59882;45.624;11.698;2023-01-01T09:50:39;10.90;84.70
66928;DHT22;59882;45.624;11.698;2023-01-01T09:53:17;10.90;84.80
66928;DHT22;59882;45.624;11.698;2023-01-01T09:58:35;11.00;84.40
66928;DHT22;59882;45.624;11.698;2023-01-01T10:01:11;11.10;83.50
66928;DHT22;59882;45.624;11.698;2023-01-01T10:03:53;11.10;83.30
66928;DHT22;59882;45.624;11.698;2023-01-01T10:06:23;11.20;82.70
66928;DHT22;59882;45.624;11.698;2023-01-01T10:09:23;11.10;82.10
66928;DHT22;59882;45.624;11.698;2023-01-01T10:11:56;11.20;82.30
66928;DHT22;59882;45.624;11.698;2023-01-01T10:14:32;11.20;82.30
66928;DHT22;59882;45.624;11.698;2023-01-01T10:17:01;11.30;82.60
66928;DHT22;59882;45.624;11.698;2023-01-01T10:19:42;11.30;82.40
66928;DHT22;59882;45.624;11.698;2023-01-01T10:22:21;11.40;81.90
66928;DHT22;59882;45.624;11.698;2023-01-01T10:27:47;11.40;81.20
66928;DHT22;59882;45.624;11.698;2023-01-01T10:30:22;11.50;80.60
66928;DHT22;59882;45.624;11.698;2023-01-01T10:32:49;11.60;79.60
66928;DHT22;59882;45.624;11.698;2023-01-01T10:35:39;11.70;79.40
66928;DHT22;59882;45.624;11.698;2023-01-01T10:38:04;11.80;78.60
66928;DHT22;59882;45.624;11.698;2023-01-01T10:40:30;11.80;77.40
66928;DHT22;59882;45.624;11.698;2023-01-01T10:42:58;11.80;76.80
66928;DHT22;59882;45.624;11.698;2023-01-01T10:45:31;11.90;77.40
66928;DHT22;59882;45.624;11.698;2023-01-01T10:53:31;12.20;76.40
66928;DHT22;59882;45.624;11.698;2023-01-01T10:56:14;12.30;76.30
66928;DHT22;59882;45.624;11.698;2023-01-01T10:58:41;12.40;74.40
66928;DHT22;59882;45.624;11.698;2023-01-01T11:01:55;12.50;74.50
66928;DHT22;59882;45.624;11.698;2023-01-01T11:04:15;12.60;75.50
66928;DHT22;59882;45.624;11.698;2023-01-01T11:06:43;12.80;74.60
66928;DHT22;59882;45.624;11.698;2023-01-01T11:11:58;12.90;73.60
66928;DHT22;59882;45.624;11.698;2023-01-01T11:14:32;13.00;74.90
66928;DHT22;59882;45.624;11.698;2023-01-01T11:17:00;13.20;74.70
66928;DHT22;59882;45.624;11.698;2023-01-01T11:19:47;13.30;74.00
66928;DHT22;59882;45.624;11.698;2023-01-01T11:22:40;13.40;73.00
66928;DHT22;59882;45.624;11.698;2023-01-01T11:25:22;13.60;72.30
66928;DHT22;59882;45.624;11.698;2023-01-01T11:27:49;13.70;72.20
66928;DHT22;59882;45.624;11.698;2023-01-01T11:30:23;13.90;71.80
66928;DHT22;59882;45.624;11.698;2023-01-01T11:32:50;13.90;71.00
66928;DHT22;59882;45.624;11.698;2023-01-01T11:35:20;14.00;70.90
66928;DHT22;59882;45.624;11.698;2023-01-01T11:37:50;14.10;70.50
66928;DHT22;59882;45.624;11.698;2023-01-01T11:40:20;14.20;70.20
66928;DHT22;59882;45.624;11.698;2023-01-01T11:42:57;14.40;71.40
66928;DHT22;59882;45.624;11.698;2023-01-01T11:45:40;14.50;68.70
66928;DHT22;59882;45.624;11.698;2023-01-01T11:48:16;14.60;68.30
66928;DHT22;59882;45.624;11.698;2023-01-01T11:50:54;14.60;69.50
66928;DHT22;59882;45.624;11.698;2023-01-01T11:56:07;14.80;70.00
66928;DHT22;59882;45.624;11.698;2023-01-01T12:01:10;14.90;69.60
66928;DHT22;59882;45.624;11.698;2023-01-01T12:12:19;15.20;68.90
66928;DHT22;59882;45.624;11.698;2023-01-01T12:14:50;15.10;70.30
66928;DHT22;59882;45.624;11.698;2023-01-01T12:17:27;15.10;69.90
66928;DHT22;59882;45.624;11.698;2023-01-01T12:22:54;15.10;67.20
66928;DHT22;59882;45.624;11.698;2023-01-01T12:25:20;14.90;67.20
66928;DHT22;59882;45.624;11.698;2023-01-01T12:30:38;14.60;68.50
66928;DHT22;59882;45.624;11.698;2023-01-01T12:33:26;14.40;68.90
66928;DHT22;59882;45.624;11.698;2023-01-01T12:38:37;14.20;69.50
66928;DHT22;59882;45.624;11.698;2023-01-01T12:58:10;14.20;70.50
66928;DHT22;59882;45.624;11.698;2023-01-01T13:00:42;14.20;69.80
66928;DHT22;59882;45.624;11.698;2023-01-01T13:03:22;14.10;70.30
66928;DHT22;59882;45.624;11.698;2023-01-01T13:05:53;14.10;70.30
66928;DHT22;59882;45.624;11.698;2023-01-01T13:08:19;14.00;69.70
66928;DHT22;59882;45.624;11.698;2023-01-01T13:10:46;13.90;70.00
66928;DHT22;59882;45.624;11.698;2023-01-01T13:13:13;13.80;70.40
66928;DHT22;59882;45.624;11.698;2023-01-01T13:18:17;13.60;70.90
66928;DHT22;59882;45.624;11.698;2023-01-01T13:20:54;13.60;71.10
66928;DHT22;59882;45.624;11.698;2023-01-01T13:34:30;13.20;72.50
66928;DHT22;59882;45.624;11.698;2023-01-01T13:42:39;13.10;73.30
66928;DHT22;59882;45.624;11.698;2023-01-01T14:10:34;12.90;74.90
66928;DHT22;59882;45.624;11.698;2023-01-01T14:15:37;12.80;75.60
66928;DHT22;59882;45.624;11.698;2023-01-01T14:18:10;12.80;76.10
66928;DHT22;59882;45.624;11.698;2023-01-01T14:20:40;12.80;76.40
66928;DHT22;59882;45.624;11.698;2023-01-01T14:23:32;12.80;75.90
66928;DHT22;59882;45.624;11.698;2023-01-01T14:25:58;12.70;75.90
66928;DHT22;59882;45.624;11.698;2023-01-01T14:28:27;12.70;76.20
66928;DHT22;59882;45.624;11.698;2023-01-01T14:30:54;12.60;76.30
66928;DHT22;59882;45.624;11.698;2023-01-01T14:33:26;12.60;76.30
66928;DHT22;59882;45.624;11.698;2023-01-01T14:35:59;12.60;76.20
66928;DHT22;59882;45.624;11.698;2023-01-01T14:38:30;12.50;76.30
66928;DHT22;59882;45.624;11.698;2023-01-01T14:41:11;12.50;76.50
66928;DHT22;59882;45.624;11.698;2023-01-01T14:43:41;12.50;76.60
66928;DHT22;59882;45.624;11.698;2023-01-01T14:46:07;12.50;76.70
66928;DHT22;59882;45.624;11.698;2023-01-01T14:48:44;12.40;76.70
66928;DHT22;59882;45.624;11.698;2023-01-01T14:51:14;12.40;76.70
66928;DHT22;59882;45.624;11.698;2023-01-01T14:53:41;12.40;76.80
66928;DHT22;59882;45.624;11.698;2023-01-01T14:56:08;12.40;76.90
66928;DHT22;59882;45.624;11.698;2023-01-01T14:58:34;12.40;76.80
66928;DHT22;59882;45.624;11.698;2023-01-01T15:01:14;12.40;76.90
66928;DHT22;59882;45.624;11.698;2023-01-01T15:03:40;12.40;77.00
66928;DHT22;59882;45.624;11.698;2023-01-01T15:06:18;12.40;77.00
66928;DHT22;59882;45.624;11.698;2023-01-01T15:08:48;12.30;77.10
66928;DHT22;59882;45.624;11.698;2023-01-01T15:11:15;12.30;77.30
66928;DHT22;59882;45.624;11.698;2023-01-01T15:14:00;12.30;77.60
66928;DHT22;59882;45.624;11.698;2023-01-01T15:16:28;12.30;77.80
66928;DHT22;59882;45.624;11.698;2023-01-01T15:18:54;12.30;78.20
66928;DHT22;59882;45.624;11.698;2023-01-01T15:24:03;12.30;78.60
66928;DHT22;59882;45.624;11.698;2023-01-01T15:26:43;12.20;78.60
66928;DHT22;59882;45.624;11.698;2023-01-01T15:29:14;12.20;79.00
66928;DHT22;59882;45.624;11.698;2023-01-01T15:31:47;12.20;79.40
66928;DHT22;59882;45.624;11.698;2023-01-01T15:34:21;12.20;79.50
66928;DHT22;59882;45.624;11.698;2023-01-01T15:36:49;12.20;79.50
66928;DHT22;59882;45.624;11.698;2023-01-01T15:39:15;12.20;79.50
66928;DHT22;59882;45.624;11.698;2023-01-01T15:41:43;12.10;79.50
66928;DHT22;59882;45.624;11.698;2023-01-01T15:44:20;12.10;79.70
66928;DHT22;59882;45.624;11.698;2023-01-01T15:46:49;12.10;79.70
66928;DHT22;59882;45.624;11.698;2023-01-01T15:49:26;12.00;79.80
66928;DHT22;59882;45.624;11.698;2023-01-01T15:51:55;12.00;79.80
66928;DHT22;59882;45.624;11.698;2023-01-01T15:54:22;12.00;79.70
66928;DHT22;59882;45.624;11.698;2023-01-01T15:56:49;12.00;79.80
66928;DHT22;59882;45.624;11.698;2023-01-01T15:59:27;11.90;79.80
66928;DHT22;59882;45.624;11.698;2023-01-01T16:02:12;11.90;79.80
66928;DHT22;59882;45.624;11.698;2023-01-01T16:04:38;11.90;79.90
66928;DHT22;59882;45.624;11.698;2023-01-01T16:07:04;11.90;79.90
66928;DHT22;59882;45.624;11.698;2023-01-01T16:09:32;11.90;79.90
66928;DHT22;59882;45.624;11.698;2023-01-01T16:12:00;11.90;80.00
66928;DHT22;59882;45.624;11.698;2023-01-01T16:14:25;11.90;80.10
66928;DHT22;59882;45.624;11.698;2023-01-01T16:16:54;11.80;80.10
66928;DHT22;59882;45.624;11.698;2023-01-01T16:19:22;11.80;80.20
66928;DHT22;59882;45.624;11.698;2023-01-01T16:21:48;11.80;80.10
66928;DHT22;59882;45.624;11.698;2023-01-01T16:24:15;11.80;80.00
66928;DHT22;59882;45.624;11.698;2023-01-01T16:26:42;11.80;80.00
66928;DHT22;59882;45.624;11.698;2023-01-01T16:29:08;11.80;80.00
66928;DHT22;59882;45.624;11.698;2023-01-01T16:31:34;11.80;80.00
66928;DHT22;59882;45.624;11.698;2023-01-01T16:34:00;11.80;79.90
66928;DHT22;59882;45.624;11.698;2023-01-01T16:36:26;11.80;79.90
66928;DHT22;59882;45.624;11.698;2023-01-01T16:38:53;11.80;80.00
66928;DHT22;59882;45.624;11.698;2023-01-01T16:41:19;11.70;80.00
66928;DHT22;59882;45.624;11.698;2023-01-01T16:43:45;11.70;79.90
66928;DHT22;59882;45.624;11.698;2023-01-01T16:46:11;11.70;79.90
66928;DHT22;59882;45.624;11.698;2023-01-01T16:48:37;11.70;79.90
66928;DHT22;59882;45.624;11.698;2023-01-01T16:51:04;11.70;80.00
66928;DHT22;59882;45.624;11.698;2023-01-01T16:53:30;11.70;80.20
66928;DHT22;59882;45.624;11.698;2023-01-01T16:55:55;11.70;80.10
66928;DHT22;59882;45.624;11.698;2023-01-01T16:58:21;11.70;80.10
66928;DHT22;59882;45.624;11.698;2023-01-01T17:00:47;11.70;80.10
66928;DHT22;59882;45.624;11.698;2023-01-01T17:03:13;11.70;80.00
66928;DHT22;59882;45.624;11.698;2023-01-01T17:05:39;11.60;80.00
66928;DHT22;59882;45.624;11.698;2023-01-01T17:08:05;11.70;80.00
66928;DHT22;59882;45.624;11.698;2023-01-01T17:10:31;11.70;80.10
66928;DHT22;59882;45.624;11.698;2023-01-01T17:12:56;11.60;80.10
66928;DHT22;59882;45.624;11.698;2023-01-01T17:15:27;11.60;80.10
66928;DHT22;59882;45.624;11.698;2023-01-01T17:17:53;11.70;80.10
66928;DHT22;59882;45.624;11.698;2023-01-01T17:20:20;11.60;80.10
66928;DHT22;59882;45.624;11.698;2023-01-01T17:22:45;11.60;80.00
66928;DHT22;59882;45.624;11.698;2023-01-01T17:25:11;11.60;80.00
66928;DHT22;59882;45.624;11.698;2023-01-01T17:27:36;11.60;80.10
66928;DHT22;59882;45.624;11.698;2023-01-01T17:30:03;11.60;80.10
66928;DHT22;59882;45.624;11.698;2023-01-01T17:32:29;11.60;80.10
66928;DHT22;59882;45.624;11.698;2023-01-01T17:35:02;11.50;80.20
66928;DHT22;59882;45.624;11.698;2023-01-01T17:37:28;11.60;80.10
66928;DHT22;59882;45.624;11.698;2023-01-01T17:39:53;11.60;80.10
66928;DHT22;59882;45.624;11.698;2023-01-01T17:42:19;11.60;80.10
66928;DHT22;59882;45.624;11.698;2023-01-01T17:44:45;11.60;80.10
66928;DHT22;59882;45.624;11.698;2023-01-01T17:47:10;11.50;80.10
66928;DHT22;59882;45.624;11.698;2023-01-01T17:49:36;11.50;80.10
66928;DHT22;59882;45.624;11.698;2023-01-01T17:52:02;11.50;80.10
66928;DHT22;59882;45.624;11.698;2023-01-01T17:54:28;11.60;80.10
66928;DHT22;59882;45.624;11.698;2023-01-01T17:56:53;11.60;80.10
66928;DHT22;59882;45.624;11.698;2023-01-01T17:59:19;11.50;80.20
66928;DHT22;59882;45.624;11.698;2023-01-01T18:01:44;11.60;80.20